San Diego, CA

8:42 PM PDT on July 01, 2015 (GMT -0700)
San Diego International-Lindbergh | | Change Station
CLOSE
Current Station
Airport
Location: San Diego,
Elevation: 30 ft
Nearby Weather Stations

Elev 30 ft 32.73 °N, 117.18 °W | Updated 33 minutes ago

Light Rain
Light Rain
73 °F
Feels Like 73 °F
N
4
Wind Variable Wind from NW

Today
High -- | Low -- °F
--% Chance of Precip.
Yesterday
High -- | Low -- °F
Precip. -- in
5:44 AM 8:00 PM
Full, 100% visible
Pressure 29.93 in
Visibility 10.0 miles
Clouds Few 600 ft
Scattered Clouds 1000 ft
Mostly Cloudy 6500 ft
Mostly Cloudy 13000 ft
Dew Point 64 °F
Humidity 73%
Rainfall 0.01 in
Snow Depth Not available.
UV 0 out of 12
Pollen 4.50 out of 12
Air Quality Not available.
Flu Activity Not available.
SPECI KSAN 020309Z 32003KT 10SM -RA FEW006 SCT010 BKN065 BKN130 23/18 A2993 RMK AO2 P0000 $

More Conditions Fewer Conditions

Pressure 29.93 in
Visibility 10.0 miles
Clouds Few 600 ft
Scattered Clouds 1000 ft
Mostly Cloudy 6500 ft
Mostly Cloudy 13000 ft
Dew Point 64 °F
Humidity 73%
Rainfall 0.01 in
Snow Depth Not available.
UV 0 out of 12
Pollen 4.50 out of 12
Air Quality Not available.
Flu Activity Not available.
SPECI KSAN 020309Z 32003KT 10SM -RA FEW006 SCT010 BKN065 BKN130 23/18 A2993 RMK AO2 P0000 $

More Conditions Fewer Conditions

10-Day Weather Forecast

×

Almanac

Astronomy

Jul. 01, 2015 Rise Set
Actual Time
Civil Twilight
Nautical Twilight
Astronomical Twilight
Moon
Length of Visible Light
Length of Day
Tomorrow will be .
, % of the Moon is Illuminated

Today's Extremes

State Highs State Lows

Community

WunderPhotos

Upload Photos

1,834,395 photos uploaded!

WunderBlogs® & News

Nearby

Air Quality

  Air Quality AQ Index Pollutant
Not available.

Snow Depth

Station Depth Elevation

Earthquake Activity

City Distance Mag. Time & Date
Minimum magnitude displayed is 2.5.

Coastal Water Temperatures

Place Temperature

Stations

Nearby Weather Stations

Station Location Temp. Windchill Dew Point Humidity Wind Precip. Elev Updated Type